sensor_id;sensor_type;location;lat;lon;timestamp;temperature;humidity
27781;DHT22;15167;1.318;103.762;2022-09-21T00:00:36;27.30;99.90
27781;DHT22;15167;1.318;103.762;2022-09-21T00:03:02;27.30;99.90
27781;DHT22;15167;1.318;103.762;2022-09-21T00:05:29;27.40;99.90
27781;DHT22;15167;1.318;103.762;2022-09-21T00:07:58;27.40;99.90
27781;DHT22;15167;1.318;103.762;2022-09-21T00:10:24;27.40;99.90
27781;DHT22;15167;1.318;103.762;2022-09-21T00:12:51;27.40;99.90
27781;DHT22;15167;1.318;103.762;2022-09-21T00:15:18;27.40;99.90
27781;DHT22;15167;1.318;103.762;2022-09-21T00:17:45;27.50;99.90
27781;DHT22;15167;1.318;103.762;2022-09-21T00:20:12;27.50;1.00
27781;DHT22;15167;1.318;103.762;2022-09-21T00:22:39;27.50;1.00
27781;DHT22;15167;1.318;103.762;2022-09-21T00:25:06;27.50;99.90
27781;DHT22;15167;1.318;103.762;2022-09-21T00:27:33;27.40;1.00
27781;DHT22;15167;1.318;103.762;2022-09-21T00:29:59;27.40;1.00
27781;DHT22;15167;1.318;103.762;2022-09-21T00:32:29;27.40;1.00
27781;DHT22;15167;1.318;103.762;2022-09-21T00:34:56;27.40;1.00
27781;DHT22;15167;1.318;103.762;2022-09-21T00:37:23;27.40;1.00
27781;DHT22;15167;1.318;103.762;2022-09-21T00:39:49;27.40;1.00
27781;DHT22;15167;1.318;103.762;2022-09-21T00:42:16;27.50;1.00
27781;DHT22;15167;1.318;103.762;2022-09-21T00:44:43;27.60;1.00
27781;DHT22;15167;1.318;103.762;2022-09-21T00:47:11;27.60;99.90
27781;DHT22;15167;1.318;103.762;2022-09-21T00:49:37;27.70;99.90
27781;DHT22;15167;1.318;103.762;2022-09-21T00:52:04;27.80;99.90
27781;DHT22;15167;1.318;103.762;2022-09-21T00:54:33;27.80;99.90
27781;DHT22;15167;1.318;103.762;2022-09-21T00:57:01;27.90;99.90
27781;DHT22;15167;1.318;103.762;2022-09-21T00:59:29;27.90;99.90
27781;DHT22;15167;1.318;103.762;2022-09-21T01:01:56;28.00;99.90
27781;DHT22;15167;1.318;103.762;2022-09-21T01:04:23;28.10;99.90
27781;DHT22;15167;1.318;103.762;2022-09-21T01:06:50;28.10;99.90
27781;DHT22;15167;1.318;103.762;2022-09-21T01:09:17;28.10;99.90
27781;DHT22;15167;1.318;103.762;2022-09-21T01:14:12;28.20;99.90
27781;DHT22;15167;1.318;103.762;2022-09-21T01:19:36;28.30;99.90
27781;DHT22;15167;1.318;103.762;2022-09-21T01:24:35;28.50;99.90
27781;DHT22;15167;1.318;103.762;2022-09-21T01:29:39;28.60;67.90
27781;DHT22;15167;1.318;103.762;2022-09-21T01:37:28;28.80;10.70
27781;DHT22;15167;1.318;103.762;2022-09-21T01:39:58;28.80;16.80
27781;DHT22;15167;1.318;103.762;2022-09-21T01:42:25;28.80;17.20
27781;DHT22;15167;1.318;103.762;2022-09-21T01:44:52;28.90;7.40
27781;DHT22;15167;1.318;103.762;2022-09-21T01:47:20;29.00;1.00
27781;DHT22;15167;1.318;103.762;2022-09-21T01:49:48;29.10;1.00
27781;DHT22;15167;1.318;103.762;2022-09-21T01:54:46;29.30;1.00
27781;DHT22;15167;1.318;103.762;2022-09-21T01:57:22;29.40;99.90
27781;DHT22;15167;1.318;103.762;2022-09-21T01:59:57;29.50;99.90
27781;DHT22;15167;1.318;103.762;2022-09-21T02:04:54;29.60;99.90
27781;DHT22;15167;1.318;103.762;2022-09-21T02:07:20;29.70;99.90
27781;DHT22;15167;1.318;103.762;2022-09-21T02:09:46;29.80;99.90
27781;DHT22;15167;1.318;103.762;2022-09-21T02:12:13;29.80;99.90
27781;DHT22;15167;1.318;103.762;2022-09-21T02:14:39;29.80;99.90
27781;DHT22;15167;1.318;103.762;2022-09-21T02:19:47;29.90;99.90
27781;DHT22;15167;1.318;103.762;2022-09-21T02:22:21;30.00;99.90
27781;DHT22;15167;1.318;103.762;2022-09-21T02:24:58;30.00;99.90
27781;DHT22;15167;1.318;103.762;2022-09-21T02:27:39;30.00;99.90
27781;DHT22;15167;1.318;103.762;2022-09-21T02:30:17;30.00;99.90
27781;DHT22;15167;1.318;103.762;2022-09-21T02:35:19;29.80;99.90
27781;DHT22;15167;1.318;103.762;2022-09-21T02:37:50;29.80;99.90
27781;DHT22;15167;1.318;103.762;2022-09-21T02:40:27;29.80;99.90
27781;DHT22;15167;1.318;103.762;2022-09-21T02:42:59;29.90;99.90
27781;DHT22;15167;1.318;103.762;2022-09-21T02:45:30;29.90;96.00
27781;DHT22;15167;1.318;103.762;2022-09-21T02:48:15;29.80;27.30
27781;DHT22;15167;1.318;103.762;2022-09-21T02:50:50;29.90;1.00
27781;DHT22;15167;1.318;103.762;2022-09-21T02:53:22;29.80;1.00
27781;DHT22;15167;1.318;103.762;2022-09-21T02:55:49;30.00;7.90
27781;DHT22;15167;1.318;103.762;2022-09-21T02:58:16;30.00;1.60
27781;DHT22;15167;1.318;103.762;2022-09-21T03:00:45;29.90;1.00
27781;DHT22;15167;1.318;103.762;2022-09-21T03:03:18;29.90;99.90
27781;DHT22;15167;1.318;103.762;2022-09-21T03:05:45;29.90;99.90
27781;DHT22;15167;1.318;103.762;2022-09-21T03:08:13;29.90;99.90
27781;DHT22;15167;1.318;103.762;2022-09-21T03:10:39;29.90;99.90
27781;DHT22;15167;1.318;103.762;2022-09-21T03:13:06;29.90;99.90
27781;DHT22;15167;1.318;103.762;2022-09-21T03:15:37;29.90;99.90
27781;DHT22;15167;1.318;103.762;2022-09-21T03:18:04;30.00;55.30
27781;DHT22;15167;1.318;103.762;2022-09-21T03:20:31;29.90;10.40
27781;DHT22;15167;1.318;103.762;2022-09-21T03:22:58;29.80;99.90
27781;DHT22;15167;1.318;103.762;2022-09-21T03:25:24;29.80;99.90
27781;DHT22;15167;1.318;103.762;2022-09-21T03:27:51;29.90;99.90
27781;DHT22;15167;1.318;103.762;2022-09-21T03:30:18;29.90;67.60
27781;DHT22;15167;1.318;103.762;2022-09-21T03:32:47;30.00;1.00
27781;DHT22;15167;1.318;103.762;2022-09-21T03:35:13;30.00;99.90
27781;DHT22;15167;1.318;103.762;2022-09-21T03:37:39;30.00;99.90
27781;DHT22;15167;1.318;103.762;2022-09-21T03:40:06;30.10;13.60
27781;DHT22;15167;1.318;103.762;2022-09-21T03:42:32;30.20;1.00
27781;DHT22;15167;1.318;103.762;2022-09-21T03:44:58;30.20;1.00
27781;DHT22;15167;1.318;103.762;2022-09-21T03:47:25;30.20;1.00
27781;DHT22;15167;1.318;103.762;2022-09-21T03:49:51;30.20;11.70
27781;DHT22;15167;1.318;103.762;2022-09-21T03:52:17;30.20;4.80
27781;DHT22;15167;1.318;103.762;2022-09-21T03:54:43;30.30;1.00
27781;DHT22;15167;1.318;103.762;2022-09-21T03:57:09;30.20;1.00
27781;DHT22;15167;1.318;103.762;2022-09-21T03:59:35;30.10;99.90
27781;DHT22;15167;1.318;103.762;2022-09-21T04:02:01;30.20;99.90
27781;DHT22;15167;1.318;103.762;2022-09-21T04:04:27;30.20;99.90
27781;DHT22;15167;1.318;103.762;2022-09-21T04:06:53;30.30;1.00
27781;DHT22;15167;1.318;103.762;2022-09-21T04:09:19;30.30;1.00
27781;DHT22;15167;1.318;103.762;2022-09-21T04:11:46;30.30;1.00
27781;DHT22;15167;1.318;103.762;2022-09-21T04:14:12;30.30;14.40
27781;DHT22;15167;1.318;103.762;2022-09-21T04:16:39;30.30;54.80
27781;DHT22;15167;1.318;103.762;2022-09-21T04:19:05;30.30;27.20
27781;DHT22;15167;1.318;103.762;2022-09-21T04:21:31;30.40;1.00
27781;DHT22;15167;1.318;103.762;2022-09-21T04:23:58;30.20;1.00
27781;DHT22;15167;1.318;103.762;2022-09-21T04:26:30;30.40;94.30
27781;DHT22;15167;1.318;103.762;2022-09-21T04:28:57;30.40;99.90
27781;DHT22;15167;1.318;103.762;2022-09-21T04:31:24;30.40;83.10
27781;DHT22;15167;1.318;103.762;2022-09-21T04:33:51;30.40;57.60
27781;DHT22;15167;1.318;103.762;2022-09-21T04:36:17;30.30;1.00
27781;DHT22;15167;1.318;103.762;2022-09-21T04:38:44;30.30;57.40
27781;DHT22;15167;1.318;103.762;2022-09-21T04:41:11;30.20;99.90
27781;DHT22;15167;1.318;103.762;2022-09-21T04:43:37;30.20;99.90
27781;DHT22;15167;1.318;103.762;2022-09-21T04:46:12;30.30;99.90
27781;DHT22;15167;1.318;103.762;2022-09-21T04:48:39;30.20;99.90
27781;DHT22;15167;1.318;103.762;2022-09-21T04:51:05;30.20;99.90
27781;DHT22;15167;1.318;103.762;2022-09-21T04:53:35;30.20;99.90
27781;DHT22;15167;1.318;103.762;2022-09-21T04:56:02;30.20;99.90
27781;DHT22;15167;1.318;103.762;2022-09-21T04:58:29;30.20;99.90
27781;DHT22;15167;1.318;103.762;2022-09-21T05:00:55;30.20;99.90
27781;DHT22;15167;1.318;103.762;2022-09-21T05:03:21;30.20;99.90
27781;DHT22;15167;1.318;103.762;2022-09-21T05:05:48;30.20;99.90
27781;DHT22;15167;1.318;103.762;2022-09-21T05:08:14;30.20;99.90
27781;DHT22;15167;1.318;103.762;2022-09-21T05:10:41;30.20;99.90
27781;DHT22;15167;1.318;103.762;2022-09-21T05:13:07;30.10;99.90
27781;DHT22;15167;1.318;103.762;2022-09-21T05:15:35;30.10;99.90
27781;DHT22;15167;1.318;103.762;2022-09-21T05:18:01;30.20;99.90
27781;DHT22;15167;1.318;103.762;2022-09-21T05:20:27;30.10;99.90
27781;DHT22;15167;1.318;103.762;2022-09-21T05:22:53;30.10;99.90
27781;DHT22;15167;1.318;103.762;2022-09-21T05:25:19;30.10;1.00
27781;DHT22;15167;1.318;103.762;2022-09-21T05:27:48;30.20;1.00
27781;DHT22;15167;1.318;103.762;2022-09-21T05:30:15;30.20;99.90
27781;DHT22;15167;1.318;103.762;2022-09-21T05:32:47;30.20;99.90
27781;DHT22;15167;1.318;103.762;2022-09-21T05:37:51;30.20;99.90
27781;DHT22;15167;1.318;103.762;2022-09-21T05:40:18;30.30;99.90
27781;DHT22;15167;1.318;103.762;2022-09-21T05:42:45;30.30;99.90
27781;DHT22;15167;1.318;103.762;2022-09-21T05:45:14;30.30;99.90
27781;DHT22;15167;1.318;103.762;2022-09-21T05:53:04;30.40;99.90
27781;DHT22;15167;1.318;103.762;2022-09-21T05:55:44;30.50;99.90
27781;DHT22;15167;1.318;103.762;2022-09-21T06:00:58;30.50;1.00
27781;DHT22;15167;1.318;103.762;2022-09-21T06:03:28;30.40;99.90
27781;DHT22;15167;1.318;103.762;2022-09-21T06:05:55;30.40;99.90
27781;DHT22;15167;1.318;103.762;2022-09-21T06:08:21;30.40;1.00
27781;DHT22;15167;1.318;103.762;2022-09-21T06:10:47;30.40;99.90
27781;DHT22;15167;1.318;103.762;2022-09-21T06:13:13;30.40;99.90
27781;DHT22;15167;1.318;103.762;2022-09-21T06:15:39;30.40;99.90
27781;DHT22;15167;1.318;103.762;2022-09-21T06:18:06;30.40;99.90
27781;DHT22;15167;1.318;103.762;2022-09-21T06:20:33;30.40;1.00
27781;DHT22;15167;1.318;103.762;2022-09-21T06:23:00;30.40;1.00
27781;DHT22;15167;1.318;103.762;2022-09-21T06:25:26;30.40;99.90
27781;DHT22;15167;1.318;103.762;2022-09-21T06:27:53;30.40;99.90
27781;DHT22;15167;1.318;103.762;2022-09-21T06:30:19;30.40;99.90
27781;DHT22;15167;1.318;103.762;2022-09-21T06:32:45;30.40;99.90
27781;DHT22;15167;1.318;103.762;2022-09-21T06:35:11;30.40;99.90
27781;DHT22;15167;1.318;103.762;2022-09-21T06:37:37;30.40;99.90
27781;DHT22;15167;1.318;103.762;2022-09-21T06:40:04;30.50;99.90
27781;DHT22;15167;1.318;103.762;2022-09-21T06:42:31;30.50;99.90
27781;DHT22;15167;1.318;103.762;2022-09-21T06:44:57;30.50;99.90
27781;DHT22;15167;1.318;103.762;2022-09-21T06:47:23;30.60;99.90
27781;DHT22;15167;1.318;103.762;2022-09-21T06:49:49;30.60;99.90
27781;DHT22;15167;1.318;103.762;2022-09-21T06:52:15;30.60;99.90
27781;DHT22;15167;1.318;103.762;2022-09-21T06:54:41;30.60;99.90
27781;DHT22;15167;1.318;103.762;2022-09-21T06:57:07;30.60;41.00
27781;DHT22;15167;1.318;103.762;2022-09-21T06:59:33;30.70;9.40
27781;DHT22;15167;1.318;103.762;2022-09-21T07:02:00;30.70;1.80
27781;DHT22;15167;1.318;103.762;2022-09-21T07:04:26;30.80;55.30
27781;DHT22;15167;1.318;103.762;2022-09-21T07:06:54;30.80;99.90
27781;DHT22;15167;1.318;103.762;2022-09-21T07:09:20;30.80;99.90
27781;DHT22;15167;1.318;103.762;2022-09-21T07:11:46;30.80;99.90
27781;DHT22;15167;1.318;103.762;2022-09-21T07:14:12;30.80;99.90
27781;DHT22;15167;1.318;103.762;2022-09-21T07:16:39;30.80;99.90
27781;DHT22;15167;1.318;103.762;2022-09-21T07:19:05;30.80;99.90
27781;DHT22;15167;1.318;103.762;2022-09-21T07:21:31;30.80;99.90
27781;DHT22;15167;1.318;103.762;2022-09-21T07:23:58;30.80;1.00
27781;DHT22;15167;1.318;103.762;2022-09-21T07:26:24;30.80;1.00
27781;DHT22;15167;1.318;103.762;2022-09-21T07:28:50;30.80;1.00
27781;DHT22;15167;1.318;103.762;2022-09-21T07:31:16;30.80;1.00
27781;DHT22;15167;1.318;103.762;2022-09-21T07:33:43;30.80;1.00
27781;DHT22;15167;1.318;103.762;2022-09-21T07:36:11;30.80;1.00
27781;DHT22;15167;1.318;103.762;2022-09-21T07:38:38;30.80;1.00
27781;DHT22;15167;1.318;103.762;2022-09-21T07:41:10;30.80;1.00
27781;DHT22;15167;1.318;103.762;2022-09-21T07:43:37;30.70;99.90
27781;DHT22;15167;1.318;103.762;2022-09-21T07:46:09;30.80;99.90
27781;DHT22;15167;1.318;103.762;2022-09-21T07:48:36;30.80;99.90
27781;DHT22;15167;1.318;103.762;2022-09-21T07:51:03;30.80;83.10
27781;DHT22;15167;1.318;103.762;2022-09-21T07:53:34;30.90;1.00
27781;DHT22;15167;1.318;103.762;2022-09-21T07:56:01;30.90;99.90
27781;DHT22;15167;1.318;103.762;2022-09-21T07:58:28;31.00;1.00
27781;DHT22;15167;1.318;103.762;2022-09-21T08:01:12;31.10;72.60
27781;DHT22;15167;1.318;103.762;2022-09-21T08:03:38;31.10;99.90
27781;DHT22;15167;1.318;103.762;2022-09-21T08:06:05;31.20;1.00
27781;DHT22;15167;1.318;103.762;2022-09-21T08:08:31;31.20;57.10
27781;DHT22;15167;1.318;103.762;2022-09-21T08:11:04;31.20;99.90
27781;DHT22;15167;1.318;103.762;2022-09-21T08:13:30;31.30;1.00
27781;DHT22;15167;1.318;103.762;2022-09-21T08:15:57;31.20;68.50
27781;DHT22;15167;1.318;103.762;2022-09-21T08:18:24;31.20;99.90
27781;DHT22;15167;1.318;103.762;2022-09-21T08:20:54;31.20;99.90
27781;DHT22;15167;1.318;103.762;2022-09-21T08:23:20;31.20;99.90
27781;DHT22;15167;1.318;103.762;2022-09-21T08:25:47;31.20;99.90
27781;DHT22;15167;1.318;103.762;2022-09-21T08:28:13;31.20;99.90
27781;DHT22;15167;1.318;103.762;2022-09-21T08:30:39;31.10;99.90
27781;DHT22;15167;1.318;103.762;2022-09-21T08:33:07;31.00;99.90
27781;DHT22;15167;1.318;103.762;2022-09-21T08:35:33;31.10;1.00
27781;DHT22;15167;1.318;103.762;2022-09-21T08:38:01;31.10;99.90
27781;DHT22;15167;1.318;103.762;2022-09-21T08:40:27;31.10;99.90
27781;DHT22;15167;1.318;103.762;2022-09-21T08:45:19;31.20;99.90
27781;DHT22;15167;1.318;103.762;2022-09-21T08:47:47;31.30;99.90
27781;DHT22;15167;1.318;103.762;2022-09-21T08:52:43;31.40;99.90
27781;DHT22;15167;1.318;103.762;2022-09-21T08:55:15;31.40;99.90
27781;DHT22;15167;1.318;103.762;2022-09-21T08:57:42;31.40;99.90
27781;DHT22;15167;1.318;103.762;2022-09-21T09:00:12;31.30;99.90
27781;DHT22;15167;1.318;103.762;2022-09-21T09:02:49;31.30;99.90
27781;DHT22;15167;1.318;103.762;2022-09-21T09:05:24;31.30;99.90
27781;DHT22;15167;1.318;103.762;2022-09-21T09:10:39;31.30;24.10
27781;DHT22;15167;1.318;103.762;2022-09-21T09:13:12;31.40;99.90
27781;DHT22;15167;1.318;103.762;2022-09-21T09:20:34;31.30;99.90
27781;DHT22;15167;1.318;103.762;2022-09-21T09:23:21;31.30;99.90
27781;DHT22;15167;1.318;103.762;2022-09-21T09:25:49;31.20;99.90
27781;DHT22;15167;1.318;103.762;2022-09-21T09:28:50;31.20;99.90
27781;DHT22;15167;1.318;103.762;2022-09-21T09:31:15;31.20;99.90
27781;DHT22;15167;1.318;103.762;2022-09-21T09:36:18;31.20;99.90
27781;DHT22;15167;1.318;103.762;2022-09-21T09:38:50;31.20;2.40
27781;DHT22;15167;1.318;103.762;2022-09-21T09:46:16;31.20;1.00
27781;DHT22;15167;1.318;103.762;2022-09-21T09:48:58;31.20;99.90
27781;DHT22;15167;1.318;103.762;2022-09-21T09:51:28;31.10;99.90
27781;DHT22;15167;1.318;103.762;2022-09-21T09:53:55;31.10;1.00
27781;DHT22;15167;1.318;103.762;2022-09-21T09:56:23;31.10;1.00
27781;DHT22;15167;1.318;103.762;2022-09-21T09:58:53;31.10;1.00
27781;DHT22;15167;1.318;103.762;2022-09-21T10:04:04;30.90;49.30
27781;DHT22;15167;1.318;103.762;2022-09-21T10:06:30;30.90;1.00
27781;DHT22;15167;1.318;103.762;2022-09-21T10:08:57;30.80;1.00
27781;DHT22;15167;1.318;103.762;2022-09-21T10:11:23;30.80;20.10
27781;DHT22;15167;1.318;103.762;2022-09-21T10:14:05;30.70;1.00
27781;DHT22;15167;1.318;103.762;2022-09-21T10:16:32;30.70;1.00
27781;DHT22;15167;1.318;103.762;2022-09-21T10:19:05;30.60;1.00
27781;DHT22;15167;1.318;103.762;2022-09-21T10:21:40;30.50;47.60
27781;DHT22;15167;1.318;103.762;2022-09-21T10:24:21;30.50;99.90
27781;DHT22;15167;1.318;103.762;2022-09-21T10:31:57;30.30;1.00
27781;DHT22;15167;1.318;103.762;2022-09-21T10:34:24;30.30;21.90
27781;DHT22;15167;1.318;103.762;2022-09-21T10:36:56;30.20;99.40
27781;DHT22;15167;1.318;103.762;2022-09-21T10:44:19;30.10;99.90
27781;DHT22;15167;1.318;103.762;2022-09-21T10:46:46;30.10;99.90
27781;DHT22;15167;1.318;103.762;2022-09-21T10:49:18;30.10;99.90
27781;DHT22;15167;1.318;103.762;2022-09-21T10:51:46;30.00;99.90
27781;DHT22;15167;1.318;103.762;2022-09-21T10:54:15;30.00;99.90
27781;DHT22;15167;1.318;103.762;2022-09-21T10:56:50;29.90;99.90
27781;DHT22;15167;1.318;103.762;2022-09-21T10:59:21;29.80;99.90
27781;DHT22;15167;1.318;103.762;2022-09-21T11:01:48;29.80;99.90
27781;DHT22;15167;1.318;103.762;2022-09-21T11:06:48;29.70;1.00
27781;DHT22;15167;1.318;103.762;2022-09-21T11:16:43;29.60;1.00
27781;DHT22;15167;1.318;103.762;2022-09-21T11:19:19;29.60;16.60
27781;DHT22;15167;1.318;103.762;2022-09-21T11:29:47;29.50;1.00
27781;DHT22;15167;1.318;103.762;2022-09-21T11:32:24;29.50;1.00
27781;DHT22;15167;1.318;103.762;2022-09-21T11:34:56;29.40;99.90
27781;DHT22;15167;1.318;103.762;2022-09-21T11:42:47;29.40;99.90
27781;DHT22;15167;1.318;103.762;2022-09-21T11:47:58;29.40;99.90
27781;DHT22;15167;1.318;103.762;2022-09-21T11:50:35;29.40;99.90
27781;DHT22;15167;1.318;103.762;2022-09-21T11:53:23;29.30;99.90
27781;DHT22;15167;1.318;103.762;2022-09-21T12:00:55;29.30;99.90
27781;DHT22;15167;1.318;103.762;2022-09-21T12:08:33;29.30;99.90
27781;DHT22;15167;1.318;103.762;2022-09-21T12:11:05;29.20;1.00
27781;DHT22;15167;1.318;103.762;2022-09-21T12:19:02;29.20;99.90
27781;DHT22;15167;1.318;103.762;2022-09-21T12:21:32;29.20;99.90
27781;DHT22;15167;1.318;103.762;2022-09-21T12:24:11;29.20;99.90
27781;DHT22;15167;1.318;103.762;2022-09-21T12:26:42;29.20;1.00
27781;DHT22;15167;1.318;103.762;2022-09-21T12:29:20;29.10;99.90
27781;DHT22;15167;1.318;103.762;2022-09-21T12:31:54;29.20;99.90
27781;DHT22;15167;1.318;103.762;2022-09-21T12:34:23;29.10;1.00
27781;DHT22;15167;1.318;103.762;2022-09-21T12:42:04;29.10;1.00
27781;DHT22;15167;1.318;103.762;2022-09-21T12:44:44;29.10;1.00
27781;DHT22;15167;1.318;103.762;2022-09-21T12:47:21;29.10;1.00
27781;DHT22;15167;1.318;103.762;2022-09-21T12:49:49;29.10;25.90
27781;DHT22;15167;1.318;103.762;2022-09-21T12:52:19;29.10;70.30
27781;DHT22;15167;1.318;103.762;2022-09-21T12:54:52;29.10;99.90
27781;DHT22;15167;1.318;103.762;2022-09-21T12:59:57;29.20;99.90
27781;DHT22;15167;1.318;103.762;2022-09-21T13:08:03;29.20;99.90
27781;DHT22;15167;1.318;103.762;2022-09-21T13:13:32;29.30;99.90
27781;DHT22;15167;1.318;103.762;2022-09-21T13:15:59;29.30;1.00
27781;DHT22;15167;1.318;103.762;2022-09-21T13:18:30;29.30;1.00
27781;DHT22;15167;1.318;103.762;2022-09-21T13:21:20;29.30;2.70
27781;DHT22;15167;1.318;103.762;2022-09-21T13:23:50;29.30;26.50
27781;DHT22;15167;1.318;103.762;2022-09-21T13:26:18;29.20;99.90
27781;DHT22;15167;1.318;103.762;2022-09-21T13:36:41;29.30;99.90
27781;DHT22;15167;1.318;103.762;2022-09-21T13:41:34;29.30;99.90
27781;DHT22;15167;1.318;103.762;2022-09-21T13:44:02;29.30;99.90
27781;DHT22;15167;1.318;103.762;2022-09-21T13:51:31;29.20;1.00
27781;DHT22;15167;1.318;103.762;2022-09-21T13:53:57;29.20;1.00
27781;DHT22;15167;1.318;103.762;2022-09-21T13:56:26;29.20;1.00
27781;DHT22;15167;1.318;103.762;2022-09-21T13:58:54;29.20;1.00
27781;DHT22;15167;1.318;103.762;2022-09-21T14:01:22;29.20;1.00
27781;DHT22;15167;1.318;103.762;2022-09-21T14:06:24;29.10;23.40
27781;DHT22;15167;1.318;103.762;2022-09-21T14:08:54;29.10;78.50
27781;DHT22;15167;1.318;103.762;2022-09-21T14:24:44;28.80;99.90
27781;DHT22;15167;1.318;103.762;2022-09-21T14:29:57;28.70;1.00
27781;DHT22;15167;1.318;103.762;2022-09-21T14:32:25;28.70;1.00
27781;DHT22;15167;1.318;103.762;2022-09-21T14:34:54;28.70;1.00
27781;DHT22;15167;1.318;103.762;2022-09-21T14:37:31;28.70;1.00
27781;DHT22;15167;1.318;103.762;2022-09-21T14:40:02;28.60;1.00
27781;DHT22;15167;1.318;103.762;2022-09-21T14:42:30;28.60;1.00
27781;DHT22;15167;1.318;103.762;2022-09-21T14:44:59;28.60;6.60
27781;DHT22;15167;1.318;103.762;2022-09-21T14:54:52;28.60;99.90
27781;DHT22;15167;1.318;103.762;2022-09-21T15:00:22;28.50;99.90
27781;DHT22;15167;1.318;103.762;2022-09-21T15:02:46;28.50;99.90
27781;DHT22;15167;1.318;103.762;2022-09-21T15:05:17;28.50;99.90
27781;DHT22;15167;1.318;103.762;2022-09-21T15:07:46;28.40;99.90
27781;DHT22;15167;1.318;103.762;2022-09-21T15:10:35;28.40;99.90
27781;DHT22;15167;1.318;103.762;2022-09-21T15:16:04;28.40;99.90
27781;DHT22;15167;1.318;103.762;2022-09-21T15:18:38;28.40;99.90
27781;DHT22;15167;1.318;103.762;2022-09-21T15:21:15;28.30;99.90
27781;DHT22;15167;1.318;103.762;2022-09-21T15:23:43;28.30;99.90
27781;DHT22;15167;1.318;103.762;2022-09-21T15:26:12;28.30;99.90
27781;DHT22;15167;1.318;103.762;2022-09-21T15:28:44;28.30;99.90
27781;DHT22;15167;1.318;103.762;2022-09-21T15:31:15;28.30;99.90
27781;DHT22;15167;1.318;103.762;2022-09-21T15:33:43;28.30;99.90
27781;DHT22;15167;1.318;103.762;2022-09-21T15:36:12;28.30;99.90
27781;DHT22;15167;1.318;103.762;2022-09-21T15:38:38;28.30;99.90
27781;DHT22;15167;1.318;103.762;2022-09-21T15:41:08;28.30;99.90
27781;DHT22;15167;1.318;103.762;2022-09-21T15:43:41;28.30;99.90
27781;DHT22;15167;1.318;103.762;2022-09-21T15:46:08;28.30;99.90
27781;DHT22;15167;1.318;103.762;2022-09-21T15:48:37;28.20;99.90
27781;DHT22;15167;1.318;103.762;2022-09-21T15:51:12;28.20;99.90
27781;DHT22;15167;1.318;103.762;2022-09-21T15:53:45;28.20;99.90
27781;DHT22;15167;1.318;103.762;2022-09-21T15:56:26;28.20;99.90
27781;DHT22;15167;1.318;103.762;2022-09-21T15:58:59;28.20;99.90
27781;DHT22;15167;1.318;103.762;2022-09-21T16:01:43;28.20;99.90
27781;DHT22;15167;1.318;103.762;2022-09-21T16:04:19;28.20;99.90
27781;DHT22;15167;1.318;103.762;2022-09-21T16:06:47;28.20;99.90
27781;DHT22;15167;1.318;103.762;2022-09-21T16:11:49;28.20;99.90
27781;DHT22;15167;1.318;103.762;2022-09-21T16:14:16;28.10;99.90
27781;DHT22;15167;1.318;103.762;2022-09-21T16:22:18;28.20;99.90
27781;DHT22;15167;1.318;103.762;2022-09-21T16:24:53;28.10;99.90
27781;DHT22;15167;1.318;103.762;2022-09-21T16:27:21;28.10;99.90
27781;DHT22;15167;1.318;103.762;2022-09-21T16:29:48;28.10;99.90
27781;DHT22;15167;1.318;103.762;2022-09-21T16:32:18;28.00;99.90
27781;DHT22;15167;1.318;103.762;2022-09-21T16:34:49;28.10;99.90
27781;DHT22;15167;1.318;103.762;2022-09-21T16:39:55;28.10;99.90
27781;DHT22;15167;1.318;103.762;2022-09-21T16:42:23;28.00;99.90
27781;DHT22;15167;1.318;103.762;2022-09-21T16:44:51;28.00;99.90
27781;DHT22;15167;1.318;103.762;2022-09-21T16:47:22;28.10;99.90
27781;DHT22;15167;1.318;103.762;2022-09-21T16:49:53;28.00;99.90
27781;DHT22;15167;1.318;103.762;2022-09-21T16:52:21;28.00;99.90
27781;DHT22;15167;1.318;103.762;2022-09-21T16:54:48;28.00;99.90
27781;DHT22;15167;1.318;103.762;2022-09-21T16:57:14;28.00;99.90
27781;DHT22;15167;1.318;103.762;2022-09-21T16:59:40;28.00;99.90
27781;DHT22;15167;1.318;103.762;2022-09-21T17:02:08;28.00;99.90
27781;DHT22;15167;1.318;103.762;2022-09-21T17:04:35;28.00;99.90
27781;DHT22;15167;1.318;103.762;2022-09-21T17:07:01;28.00;99.90
27781;DHT22;15167;1.318;103.762;2022-09-21T17:09:31;28.00;99.90
27781;DHT22;15167;1.318;103.762;2022-09-21T17:11:58;28.00;99.90
27781;DHT22;15167;1.318;103.762;2022-09-21T17:14:29;28.00;99.90
27781;DHT22;15167;1.318;103.762;2022-09-21T17:17:01;28.00;99.90
27781;DHT22;15167;1.318;103.762;2022-09-21T17:19:31;28.00;99.90
27781;DHT22;15167;1.318;103.762;2022-09-21T17:21:57;28.00;99.90
27781;DHT22;15167;1.318;103.762;2022-09-21T17:24:24;28.00;99.90
27781;DHT22;15167;1.318;103.762;2022-09-21T17:26:51;28.00;99.90
27781;DHT22;15167;1.318;103.762;2022-09-21T17:29:18;28.00;99.90
27781;DHT22;15167;1.318;103.762;2022-09-21T17:31:48;28.00;99.90
27781;DHT22;15167;1.318;103.762;2022-09-21T17:34:15;28.00;99.90
27781;DHT22;15167;1.318;103.762;2022-09-21T17:36:42;27.90;99.90
27781;DHT22;15167;1.318;103.762;2022-09-21T17:39:08;28.00;99.90
27781;DHT22;15167;1.318;103.762;2022-09-21T17:44:12;27.90;99.90
27781;DHT22;15167;1.318;103.762;2022-09-21T17:46:51;27.90;99.90
27781;DHT22;15167;1.318;103.762;2022-09-21T17:49:19;27.90;99.90
27781;DHT22;15167;1.318;103.762;2022-09-21T17:51:45;27.90;99.90
27781;DHT22;15167;1.318;103.762;2022-09-21T17:54:29;27.90;99.90
27781;DHT22;15167;1.318;103.762;2022-09-21T17:59:35;27.90;99.90
27781;DHT22;15167;1.318;103.762;2022-09-21T18:02:05;27.90;99.90
27781;DHT22;15167;1.318;103.762;2022-09-21T18:04:37;27.90;99.90
27781;DHT22;15167;1.318;103.762;2022-09-21T18:07:04;27.90;99.90
27781;DHT22;15167;1.318;103.762;2022-09-21T18:09:30;27.80;99.90
27781;DHT22;15167;1.318;103.762;2022-09-21T18:12:42;27.80;99.90
27781;DHT22;15167;1.318;103.762;2022-09-21T18:25:14;27.80;99.90
27781;DHT22;15167;1.318;103.762;2022-09-21T18:27:41;27.80;99.90
27781;DHT22;15167;1.318;103.762;2022-09-21T18:30:11;27.80;99.90
27781;DHT22;15167;1.318;103.762;2022-09-21T18:40:14;27.80;99.90
27781;DHT22;15167;1.318;103.762;2022-09-21T18:47:56;27.70;1.00
27781;DHT22;15167;1.318;103.762;2022-09-21T18:50:49;27.70;1.00
27781;DHT22;15167;1.318;103.762;2022-09-21T18:56:21;27.70;1.00
27781;DHT22;15167;1.318;103.762;2022-09-21T18:58:47;27.70;1.00
27781;DHT22;15167;1.318;103.762;2022-09-21T19:01:14;27.70;1.00
27781;DHT22;15167;1.318;103.762;2022-09-21T19:03:43;27.60;1.00
27781;DHT22;15167;1.318;103.762;2022-09-21T19:08:37;27.60;1.00
27781;DHT22;15167;1.318;103.762;2022-09-21T19:11:15;27.60;1.00